sensor_id;sensor_type;location;lat;lon;timestamp;pressure;altitude;pressure_sealevel;temperature;humidity
71996;BME280;59862;47.732;7.346;2022-08-21T00:00:33;98194.72;;;17.29;77.43
71996;BME280;59862;47.732;7.346;2022-08-21T00:03:03;98188.54;;;17.26;77.55
71996;BME280;59862;47.732;7.346;2022-08-21T00:05:35;98187.72;;;17.22;77.68
71996;BME280;59862;47.732;7.346;2022-08-21T00:08:02;98193.22;;;17.15;77.93
71996;BME280;59862;47.732;7.346;2022-08-21T00:10:30;98193.61;;;17.13;77.68
71996;BME280;59862;47.732;7.346;2022-08-21T00:12:58;98193.38;;;17.08;77.79
71996;BME280;59862;47.732;7.346;2022-08-21T00:15:29;98188.17;;;17.03;77.68
71996;BME280;59862;47.732;7.346;2022-08-21T00:17:57;98182.35;;;16.95;77.61
71996;BME280;59862;47.732;7.346;2022-08-21T00:20:25;98185.25;;;16.89;77.44
71996;BME280;59862;47.732;7.346;2022-08-21T00:22:53;98180.05;;;16.84;77.47
71996;BME280;59862;47.732;7.346;2022-08-21T00:25:20;98181.20;;;16.79;77.67
71996;BME280;59862;47.732;7.346;2022-08-21T00:27:48;98183.11;;;16.72;77.83
71996;BME280;59862;47.732;7.346;2022-08-21T00:30:17;98184.09;;;16.70;77.96
71996;BME280;59862;47.732;7.346;2022-08-21T00:32:45;98183.47;;;16.67;77.97
71996;BME280;59862;47.732;7.346;2022-08-21T00:35:15;98182.88;;;16.67;78.05
71996;BME280;59862;47.732;7.346;2022-08-21T00:37:43;98182.74;;;16.57;78.24
71996;BME280;59862;47.732;7.346;2022-08-21T00:40:14;98184.48;;;16.52;78.51
71996;BME280;59862;47.732;7.346;2022-08-21T00:42:42;98178.23;;;16.41;78.60
71996;BME280;59862;47.732;7.346;2022-08-21T00:45:11;98176.94;;;16.32;79.12
71996;BME280;59862;47.732;7.346;2022-08-21T00:47:38;98182.70;;;16.33;79.09
71996;BME280;59862;47.732;7.346;2022-08-21T00:50:07;98177.73;;;16.32;79.09
71996;BME280;59862;47.732;7.346;2022-08-21T00:52:37;98172.78;;;16.32;79.07
71996;BME280;59862;47.732;7.346;2022-08-21T00:55:07;98166.01;;;16.29;79.20
71996;BME280;59862;47.732;7.346;2022-08-21T00:57:42;98174.34;;;16.29;79.17
71996;BME280;59862;47.732;7.346;2022-08-21T01:00:12;98170.48;;;16.24;79.37
71996;BME280;59862;47.732;7.346;2022-08-21T01:02:40;98172.46;;;16.24;79.33
71996;BME280;59862;47.732;7.346;2022-08-21T01:05:08;98169.69;;;16.24;79.29
71996;BME280;59862;47.732;7.346;2022-08-21T01:07:36;98171.03;;;16.20;79.22
71996;BME280;59862;47.732;7.346;2022-08-21T01:10:05;98172.21;;;16.19;79.28
71996;BME280;59862;47.732;7.346;2022-08-21T01:12:34;98168.22;;;16.16;79.35
71996;BME280;59862;47.732;7.346;2022-08-21T01:15:05;98167.38;;;16.12;79.40
71996;BME280;59862;47.732;7.346;2022-08-21T01:17:33;98172.85;;;16.05;79.60
71996;BME280;59862;47.732;7.346;2022-08-21T01:20:04;98165.66;;;16.01;79.70
71996;BME280;59862;47.732;7.346;2022-08-21T01:22:32;98165.50;;;16.03;79.72
71996;BME280;59862;47.732;7.346;2022-08-21T01:25:00;98160.92;;;16.01;79.56
71996;BME280;59862;47.732;7.346;2022-08-21T01:27:27;98157.17;;;16.03;79.59
71996;BME280;59862;47.732;7.346;2022-08-21T01:29:57;98156.20;;;16.05;79.51
71996;BME280;59862;47.732;7.346;2022-08-21T01:32:26;98158.60;;;16.07;79.32
71996;BME280;59862;47.732;7.346;2022-08-21T01:34:54;98153.44;;;16.05;79.22
71996;BME280;59862;47.732;7.346;2022-08-21T01:37:22;98151.45;;;16.06;79.22
71996;BME280;59862;47.732;7.346;2022-08-21T01:39:50;98159.78;;;16.06;79.15
71996;BME280;59862;47.732;7.346;2022-08-21T01:42:18;98152.05;;;16.05;79.01
71996;BME280;59862;47.732;7.346;2022-08-21T01:44:45;98153.27;;;16.08;78.98
71996;BME280;59862;47.732;7.346;2022-08-21T01:47:15;98147.71;;;16.08;79.01
71996;BME280;59862;47.732;7.346;2022-08-21T01:49:44;98151.28;;;16.08;78.96
71996;BME280;59862;47.732;7.346;2022-08-21T01:52:12;98154.86;;;16.09;78.91
71996;BME280;59862;47.732;7.346;2022-08-21T01:54:40;98149.65;;;16.04;78.83
71996;BME280;59862;47.732;7.346;2022-08-21T01:57:08;98160.54;;;16.03;78.85
71996;BME280;59862;47.732;7.346;2022-08-21T01:59:36;98154.98;;;16.03;78.89
71996;BME280;59862;47.732;7.346;2022-08-21T02:02:05;98154.61;;;16.04;79.02
71996;BME280;59862;47.732;7.346;2022-08-21T02:04:33;98158.56;;;16.03;78.94
71996;BME280;59862;47.732;7.346;2022-08-21T02:07:01;98155.41;;;16.05;78.92
71996;BME280;59862;47.732;7.346;2022-08-21T02:09:28;98150.23;;;16.03;78.83
71996;BME280;59862;47.732;7.346;2022-08-21T02:11:56;98153.19;;;16.01;78.64
71996;BME280;59862;47.732;7.346;2022-08-21T02:14:23;98148.85;;;16.03;78.56
71996;BME280;59862;47.732;7.346;2022-08-21T02:16:51;98156.80;;;16.05;78.50
71996;BME280;59862;47.732;7.346;2022-08-21T02:19:19;98156.03;;;16.08;78.35
71996;BME280;59862;47.732;7.346;2022-08-21T02:21:46;98144.31;;;16.05;78.13
71996;BME280;59862;47.732;7.346;2022-08-21T02:24:14;98146.08;;;16.03;78.02
71996;BME280;59862;47.732;7.346;2022-08-21T02:26:41;98143.64;;;15.98;78.29
71996;BME280;59862;47.732;7.346;2022-08-21T02:29:09;98139.44;;;15.95;78.30
71996;BME280;59862;47.732;7.346;2022-08-21T02:31:37;98142.22;;;15.95;78.29
71996;BME280;59862;47.732;7.346;2022-08-21T02:34:04;98138.02;;;15.91;78.43
71996;BME280;59862;47.732;7.346;2022-08-21T02:36:32;98137.72;;;15.83;78.70
71996;BME280;59862;47.732;7.346;2022-08-21T02:38:59;98136.55;;;15.84;78.63
71996;BME280;59862;47.732;7.346;2022-08-21T02:41:27;98128.19;;;15.80;78.73
71996;BME280;59862;47.732;7.346;2022-08-21T02:43:54;98125.58;;;15.78;79.00
71996;BME280;59862;47.732;7.346;2022-08-21T02:46:22;98124.36;;;15.75;79.14
71996;BME280;59862;47.732;7.346;2022-08-21T02:48:50;98128.02;;;15.66;79.44
71996;BME280;59862;47.732;7.346;2022-08-21T02:51:19;98134.31;;;15.63;79.49
71996;BME280;59862;47.732;7.346;2022-08-21T02:53:47;98132.19;;;15.57;79.61
71996;BME280;59862;47.732;7.346;2022-08-21T02:56:18;98126.64;;;15.57;79.54
71996;BME280;59862;47.732;7.346;2022-08-21T02:58:49;98124.03;;;15.54;79.71
71996;BME280;59862;47.732;7.346;2022-08-21T03:01:18;98129.36;;;15.53;79.83
71996;BME280;59862;47.732;7.346;2022-08-21T03:03:47;98131.13;;;15.51;79.90
71996;BME280;59862;47.732;7.346;2022-08-21T03:06:19;98134.81;;;15.46;80.12
71996;BME280;59862;47.732;7.346;2022-08-21T03:08:48;98134.56;;;15.41;80.30
71996;BME280;59862;47.732;7.346;2022-08-21T03:11:17;98140.85;;;15.38;80.40
71996;BME280;59862;47.732;7.346;2022-08-21T03:13:46;98136.86;;;15.36;80.54
71996;BME280;59862;47.732;7.346;2022-08-21T03:16:13;98141.60;;;15.35;80.55
71996;BME280;59862;47.732;7.346;2022-08-21T03:18:41;98143.15;;;15.33;80.59
71996;BME280;59862;47.732;7.346;2022-08-21T03:21:08;98143.89;;;15.30;80.71
71996;BME280;59862;47.732;7.346;2022-08-21T03:23:36;98144.27;;;15.28;80.66
71996;BME280;59862;47.732;7.346;2022-08-21T03:26:07;98142.84;;;15.25;80.80
71996;BME280;59862;47.732;7.346;2022-08-21T03:28:36;98139.69;;;15.26;80.84
71996;BME280;59862;47.732;7.346;2022-08-21T03:31:03;98136.55;;;15.28;80.82
71996;BME280;59862;47.732;7.346;2022-08-21T03:33:32;98137.34;;;15.28;80.88
71996;BME280;59862;47.732;7.346;2022-08-21T03:36:02;98134.31;;;15.23;81.05
71996;BME280;59862;47.732;7.346;2022-08-21T03:38:32;98137.45;;;15.22;81.15
71996;BME280;59862;47.732;7.346;2022-08-21T03:41:01;98132.29;;;15.20;81.27
71996;BME280;59862;47.732;7.346;2022-08-21T03:43:29;98138.63;;;15.21;81.28
71996;BME280;59862;47.732;7.346;2022-08-21T03:45:58;98138.79;;;15.18;81.38
71996;BME280;59862;47.732;7.346;2022-08-21T03:48:27;98133.20;;;15.15;81.50
71996;BME280;59862;47.732;7.346;2022-08-21T03:50:55;98136.66;;;15.08;81.76
71996;BME280;59862;47.732;7.346;2022-08-21T03:53:22;98123.98;;;15.07;81.96
71996;BME280;59862;47.732;7.346;2022-08-21T03:55:51;98126.86;;;15.01;82.08
71996;BME280;59862;47.732;7.346;2022-08-21T03:58:21;98128.56;;;14.96;82.16
71996;BME280;59862;47.732;7.346;2022-08-21T04:00:52;98129.81;;;14.89;82.46
71996;BME280;59862;47.732;7.346;2022-08-21T04:03:20;98129.39;;;14.87;82.61
71996;BME280;59862;47.732;7.346;2022-08-21T04:05:49;98131.20;;;14.89;82.66
71996;BME280;59862;47.732;7.346;2022-08-21T04:08:17;98129.81;;;14.89;82.59
71996;BME280;59862;47.732;7.346;2022-08-21T04:10:47;98131.52;;;14.84;82.93
71996;BME280;59862;47.732;7.346;2022-08-21T04:13:16;98134.81;;;14.80;83.08
71996;BME280;59862;47.732;7.346;2022-08-21T04:15:43;98134.59;;;14.79;83.21
71996;BME280;59862;47.732;7.346;2022-08-21T04:18:11;98142.31;;;14.79;83.37
71996;BME280;59862;47.732;7.346;2022-08-21T04:20:40;98136.94;;;14.77;83.41
71996;BME280;59862;47.732;7.346;2022-08-21T04:23:09;98145.45;;;14.78;83.51
71996;BME280;59862;47.732;7.346;2022-08-21T04:25:37;98146.26;;;14.78;83.50
71996;BME280;59862;47.732;7.346;2022-08-21T04:28:05;98145.52;;;14.81;83.26
71996;BME280;59862;47.732;7.346;2022-08-21T04:30:32;98145.24;;;14.77;83.47
71996;BME280;59862;47.732;7.346;2022-08-21T04:32:59;98147.86;;;14.79;83.50
71996;BME280;59862;47.732;7.346;2022-08-21T04:35:28;98151.00;;;14.78;83.57
71996;BME280;59862;47.732;7.346;2022-08-21T04:37:56;98153.17;;;14.78;83.43
71996;BME280;59862;47.732;7.346;2022-08-21T04:40:26;98152.16;;;14.77;83.56
71996;BME280;59862;47.732;7.346;2022-08-21T04:42:58;98157.27;;;14.75;83.53
71996;BME280;59862;47.732;7.346;2022-08-21T04:45:33;98149.34;;;14.73;83.61
71996;BME280;59862;47.732;7.346;2022-08-21T04:48:03;98150.14;;;14.74;83.88
71996;BME280;59862;47.732;7.346;2022-08-21T04:50:36;98145.03;;;14.76;83.74
71996;BME280;59862;47.732;7.346;2022-08-21T04:53:07;98147.42;;;14.77;83.53
71996;BME280;59862;47.732;7.346;2022-08-21T04:55:35;98155.36;;;14.79;83.49
71996;BME280;59862;47.732;7.346;2022-08-21T04:58:06;98154.19;;;14.80;83.50
71996;BME280;59862;47.732;7.346;2022-08-21T05:00:35;98157.97;;;14.81;83.56
71996;BME280;59862;47.732;7.346;2022-08-21T05:03:05;98152.28;;;14.84;83.54
71996;BME280;59862;47.732;7.346;2022-08-21T05:05:34;98156.06;;;14.85;83.51
71996;BME280;59862;47.732;7.346;2022-08-21T05:08:03;98161.66;;;14.89;83.47
71996;BME280;59862;47.732;7.346;2022-08-21T05:10:32;98164.42;;;14.89;83.47
71996;BME280;59862;47.732;7.346;2022-08-21T05:13:00;98164.70;;;14.94;83.43
71996;BME280;59862;47.732;7.346;2022-08-21T05:15:27;98168.94;;;14.97;83.47
71996;BME280;59862;47.732;7.346;2022-08-21T05:17:56;98169.20;;;15.02;83.40
71996;BME280;59862;47.732;7.346;2022-08-21T05:20:23;98166.06;;;15.03;83.37
71996;BME280;59862;47.732;7.346;2022-08-21T05:22:51;98169.53;;;15.10;83.28
71996;BME280;59862;47.732;7.346;2022-08-21T05:25:18;98170.17;;;15.13;83.11
71996;BME280;59862;47.732;7.346;2022-08-21T05:27:46;98167.23;;;15.15;82.96
71996;BME280;59862;47.732;7.346;2022-08-21T05:30:14;98167.45;;;15.16;82.91
71996;BME280;59862;47.732;7.346;2022-08-21T05:32:41;98170.54;;;15.11;82.94
71996;BME280;59862;47.732;7.346;2022-08-21T05:35:09;98169.74;;;15.24;82.80
71996;BME280;59862;47.732;7.346;2022-08-21T05:37:37;98173.30;;;15.38;82.43
71996;BME280;59862;47.732;7.346;2022-08-21T05:40:05;98172.06;;;15.48;82.09
71996;BME280;59862;47.732;7.346;2022-08-21T05:42:34;98170.36;;;15.53;81.94
71996;BME280;59862;47.732;7.346;2022-08-21T05:45:01;98171.52;;;15.62;81.75
71996;BME280;59862;47.732;7.346;2022-08-21T05:47:29;98167.45;;;15.69;81.51
71996;BME280;59862;47.732;7.346;2022-08-21T05:49:56;98154.81;;;15.72;80.96
71996;BME280;59862;47.732;7.346;2022-08-21T05:52:24;98166.80;;;15.79;80.85
71996;BME280;59862;47.732;7.346;2022-08-21T05:54:51;98157.77;;;15.86;80.66
71996;BME280;59862;47.732;7.346;2022-08-21T05:57:21;98154.66;;;15.91;80.44
71996;BME280;59862;47.732;7.346;2022-08-21T05:59:49;98158.39;;;16.06;80.18
71996;BME280;59862;47.732;7.346;2022-08-21T06:02:18;98161.03;;;16.12;79.43
71996;BME280;59862;47.732;7.346;2022-08-21T06:04:46;98162.71;;;16.20;79.48
71996;BME280;59862;47.732;7.346;2022-08-21T06:07:14;98172.08;;;16.25;78.95
71996;BME280;59862;47.732;7.346;2022-08-21T06:09:41;98164.28;;;16.34;78.71
71996;BME280;59862;47.732;7.346;2022-08-21T06:12:11;98171.01;;;16.33;77.75
71996;BME280;59862;47.732;7.346;2022-08-21T06:14:40;98171.39;;;16.32;77.91
71996;BME280;59862;47.732;7.346;2022-08-21T06:17:10;98173.86;;;16.40;77.86
71996;BME280;59862;47.732;7.346;2022-08-21T06:19:40;98176.70;;;16.47;77.36
71996;BME280;59862;47.732;7.346;2022-08-21T06:22:07;98174.90;;;16.45;76.98
71996;BME280;59862;47.732;7.346;2022-08-21T06:24:35;98170.66;;;16.59;77.03
71996;BME280;59862;47.732;7.346;2022-08-21T06:27:06;98176.38;;;16.73;76.71
71996;BME280;59862;47.732;7.346;2022-08-21T06:29:35;98172.92;;;16.87;76.59
71996;BME280;59862;47.732;7.346;2022-08-21T06:32:03;98172.06;;;16.99;76.59
71996;BME280;59862;47.732;7.346;2022-08-21T06:34:38;98175.72;;;17.10;76.54
71996;BME280;59862;47.732;7.346;2022-08-21T06:37:06;98173.38;;;17.16;76.14
71996;BME280;59862;47.732;7.346;2022-08-21T06:39:34;98168.47;;;17.23;75.44
71996;BME280;59862;47.732;7.346;2022-08-21T06:42:02;98172.48;;;17.29;75.14
71996;BME280;59862;47.732;7.346;2022-08-21T06:44:31;98173.14;;;17.39;74.91
71996;BME280;59862;47.732;7.346;2022-08-21T06:46:58;98166.84;;;17.49;74.87
71996;BME280;59862;47.732;7.346;2022-08-21T06:49:26;98163.70;;;17.54;74.58
71996;BME280;59862;47.732;7.346;2022-08-21T06:51:53;98168.90;;;17.56;74.58
71996;BME280;59862;47.732;7.346;2022-08-21T06:54:20;98169.42;;;17.48;74.30
71996;BME280;59862;47.732;7.346;2022-08-21T06:56:48;98156.95;;;17.55;74.49
71996;BME280;59862;47.732;7.346;2022-08-21T06:59:15;98157.27;;;17.67;74.76
71996;BME280;59862;47.732;7.346;2022-08-21T07:01:43;98158.20;;;17.61;75.33
71996;BME280;59862;47.732;7.346;2022-08-21T07:04:11;98164.03;;;17.69;75.09
71996;BME280;59862;47.732;7.346;2022-08-21T07:06:38;98167.09;;;17.85;75.16
71996;BME280;59862;47.732;7.346;2022-08-21T07:09:05;98163.49;;;17.81;74.76
71996;BME280;59862;47.732;7.346;2022-08-21T07:11:35;98166.53;;;17.96;75.00
71996;BME280;59862;47.732;7.346;2022-08-21T07:14:04;98167.95;;;18.03;74.66
71996;BME280;59862;47.732;7.346;2022-08-21T07:16:31;98155.87;;;18.16;74.73
71996;BME280;59862;47.732;7.346;2022-08-21T07:18:58;98167.47;;;18.28;73.79
71996;BME280;59862;47.732;7.346;2022-08-21T07:21:27;98161.52;;;18.41;73.69
71996;BME280;59862;47.732;7.346;2022-08-21T07:23:54;98173.09;;;18.53;73.15
71996;BME280;59862;47.732;7.346;2022-08-21T07:26:23;98174.34;;;18.74;73.62
71996;BME280;59862;47.732;7.346;2022-08-21T07:28:52;98176.17;;;18.90;71.83
71996;BME280;59862;47.732;7.346;2022-08-21T07:31:22;98169.60;;;18.92;71.22
71996;BME280;59862;47.732;7.346;2022-08-21T07:33:50;98172.98;;;18.98;70.12
71996;BME280;59862;47.732;7.346;2022-08-21T07:36:18;98175.77;;;19.09;70.58
71996;BME280;59862;47.732;7.346;2022-08-21T07:38:46;98177.36;;;19.17;68.33
71996;BME280;59862;47.732;7.346;2022-08-21T07:41:20;98168.56;;;19.40;68.79
71996;BME280;59862;47.732;7.346;2022-08-21T07:43:48;98167.74;;;19.50;66.92
71996;BME280;59862;47.732;7.346;2022-08-21T07:46:15;98165.20;;;19.58;66.92
71996;BME280;59862;47.732;7.346;2022-08-21T07:48:43;98168.12;;;19.77;67.04
71996;BME280;59862;47.732;7.346;2022-08-21T07:51:14;98166.47;;;19.94;66.67
71996;BME280;59862;47.732;7.346;2022-08-21T07:53:41;98163.39;;;20.14;66.63
71996;BME280;59862;47.732;7.346;2022-08-21T07:56:10;98167.32;;;20.31;65.08
71996;BME280;59862;47.732;7.346;2022-08-21T07:58:37;98163.88;;;20.39;64.71
71996;BME280;59862;47.732;7.346;2022-08-21T08:01:06;98158.34;;;20.32;64.97
71996;BME280;59862;47.732;7.346;2022-08-21T08:03:34;98154.91;;;20.43;65.17
71996;BME280;59862;47.732;7.346;2022-08-21T08:06:01;98157.08;;;20.47;64.76
71996;BME280;59862;47.732;7.346;2022-08-21T08:08:31;98150.09;;;20.76;65.41
71996;BME280;59862;47.732;7.346;2022-08-21T08:10:59;98154.68;;;21.04;60.26
71996;BME280;59862;47.732;7.346;2022-08-21T08:13:27;98154.03;;;21.34;60.07
71996;BME280;59862;47.732;7.346;2022-08-21T08:15:55;98146.70;;;21.51;59.27
71996;BME280;59862;47.732;7.346;2022-08-21T08:18:22;98146.12;;;21.48;59.76
71996;BME280;59862;47.732;7.346;2022-08-21T08:20:50;98137.05;;;21.56;58.84
71996;BME280;59862;47.732;7.346;2022-08-21T08:23:17;98141.11;;;21.85;56.54
71996;BME280;59862;47.732;7.346;2022-08-21T08:25:45;98136.67;;;22.06;56.06
71996;BME280;59862;47.732;7.346;2022-08-21T08:28:12;98142.52;;;22.34;56.14
71996;BME280;59862;47.732;7.346;2022-08-21T08:30:41;98137.72;;;22.62;53.17
71996;BME280;59862;47.732;7.346;2022-08-21T08:33:09;98135.25;;;22.94;51.00
71996;BME280;59862;47.732;7.346;2022-08-21T08:35:36;98144.52;;;23.26;48.68
71996;BME280;59862;47.732;7.346;2022-08-21T08:38:05;98137.38;;;23.33;47.83
71996;BME280;59862;47.732;7.346;2022-08-21T08:40:44;98129.62;;;23.53;47.71
71996;BME280;59862;47.732;7.346;2022-08-21T08:43:15;98140.39;;;23.97;48.28
71996;BME280;59862;47.732;7.346;2022-08-21T08:45:45;98141.71;;;24.13;49.04
71996;BME280;59862;47.732;7.346;2022-08-21T08:48:16;98149.53;;;24.33;48.83
71996;BME280;59862;47.732;7.346;2022-08-21T08:50:55;98137.77;;;24.74;48.18
71996;BME280;59862;47.732;7.346;2022-08-21T08:53:28;98137.50;;;24.77;47.08
71996;BME280;59862;47.732;7.346;2022-08-21T08:55:57;98139.00;;;24.81;47.54
71996;BME280;59862;47.732;7.346;2022-08-21T08:58:33;98137.36;;;25.00;47.33
71996;BME280;59862;47.732;7.346;2022-08-21T09:01:01;98137.98;;;25.08;46.02
71996;BME280;59862;47.732;7.346;2022-08-21T09:03:31;98138.14;;;25.17;44.96
71996;BME280;59862;47.732;7.346;2022-08-21T09:06:08;98136.98;;;25.47;44.67
71996;BME280;59862;47.732;7.346;2022-08-21T09:08:53;98133.66;;;25.19;45.04
71996;BME280;59862;47.732;7.346;2022-08-21T09:11:31;98120.45;;;25.24;46.43
71996;BME280;59862;47.732;7.346;2022-08-21T09:14:26;98126.59;;;25.36;46.09
71996;BME280;59862;47.732;7.346;2022-08-21T09:17:16;98123.00;;;24.86;44.64
71996;BME280;59862;47.732;7.346;2022-08-21T09:22:47;98125.84;;;25.03;41.35
71996;BME280;59862;47.732;7.346;2022-08-21T09:27:51;98116.91;;;25.53;43.12
71996;BME280;59862;47.732;7.346;2022-08-21T09:30:24;98099.64;;;25.67;43.51
71996;BME280;59862;47.732;7.346;2022-08-21T09:32:49;98103.86;;;25.67;44.16
71996;BME280;59862;47.732;7.346;2022-08-21T09:35:20;98098.31;;;26.13;42.99
71996;BME280;59862;47.732;7.346;2022-08-21T09:37:56;98092.46;;;26.20;43.64
71996;BME280;59862;47.732;7.346;2022-08-21T09:42:57;98082.69;;;26.50;43.87
71996;BME280;59862;47.732;7.346;2022-08-21T09:45:25;98087.56;;;26.29;42.78
71996;BME280;59862;47.732;7.346;2022-08-21T09:47:53;98081.67;;;26.44;43.23
71996;BME280;59862;47.732;7.346;2022-08-21T09:50:24;98078.63;;;26.77;42.79
71996;BME280;59862;47.732;7.346;2022-08-21T09:52:59;98082.05;;;27.32;42.54
71996;BME280;59862;47.732;7.346;2022-08-21T09:55:38;98088.66;;;28.38;41.40
71996;BME280;59862;47.732;7.346;2022-08-21T09:58:20;98077.20;;;28.77;39.66
71996;BME280;59862;47.732;7.346;2022-08-21T10:00:56;98082.73;;;29.44;37.17
71996;BME280;59862;47.732;7.346;2022-08-21T10:03:20;98083.45;;;30.26;36.61
71996;BME280;59862;47.732;7.346;2022-08-21T10:06:04;98083.41;;;30.40;34.65
71996;BME280;59862;47.732;7.346;2022-08-21T10:08:35;98084.74;;;31.01;33.48
71996;BME280;59862;47.732;7.346;2022-08-21T10:11:06;98083.91;;;31.38;32.79
71996;BME280;59862;47.732;7.346;2022-08-21T10:19:38;98072.63;;;29.38;37.58
71996;BME280;59862;47.732;7.346;2022-08-21T10:22:32;98063.64;;;29.90;36.96
71996;BME280;59862;47.732;7.346;2022-08-21T10:33:21;98067.90;;;29.85;37.56
71996;BME280;59862;47.732;7.346;2022-08-21T10:36:03;98070.16;;;30.42;37.12
71996;BME280;59862;47.732;7.346;2022-08-21T10:38:39;98061.95;;;31.58;34.12
71996;BME280;59862;47.732;7.346;2022-08-21T10:41:32;98068.47;;;32.51;32.11
71996;BME280;59862;47.732;7.346;2022-08-21T10:44:17;98061.12;;;32.84;32.44
71996;BME280;59862;47.732;7.346;2022-08-21T10:46:48;98063.70;;;32.67;31.31
71996;BME280;59862;47.732;7.346;2022-08-21T10:49:25;98058.77;;;32.43;32.83
71996;BME280;59862;47.732;7.346;2022-08-21T10:52:00;98060.05;;;32.12;32.59
71996;BME280;59862;47.732;7.346;2022-08-21T10:54:41;98054.93;;;31.48;33.85
71996;BME280;59862;47.732;7.346;2022-08-21T10:57:13;98056.13;;;31.37;34.41
71996;BME280;59862;47.732;7.346;2022-08-21T11:00:03;98050.41;;;31.23;34.34
71996;BME280;59862;47.732;7.346;2022-08-21T11:02:29;98048.98;;;30.14;35.33
71996;BME280;59862;47.732;7.346;2022-08-21T11:07:35;98040.30;;;28.90;37.02
71996;BME280;59862;47.732;7.346;2022-08-21T11:10:12;98037.80;;;28.56;38.03
71996;BME280;59862;47.732;7.346;2022-08-21T11:12:46;98040.58;;;28.12;38.31
71996;BME280;59862;47.732;7.346;2022-08-21T11:15:28;98037.00;;;27.67;40.74
71996;BME280;59862;47.732;7.346;2022-08-21T11:20:43;98029.97;;;29.37;36.22
71996;BME280;59862;47.732;7.346;2022-08-21T11:23:27;98025.71;;;30.39;35.26
71996;BME280;59862;47.732;7.346;2022-08-21T11:26:02;98030.09;;;31.53;33.66
71996;BME280;59862;47.732;7.346;2022-08-21T11:28:37;98031.42;;;31.63;31.88
71996;BME280;59862;47.732;7.346;2022-08-21T11:37:05;98021.24;;;32.05;30.06
71996;BME280;59862;47.732;7.346;2022-08-21T11:39:44;98017.77;;;32.60;29.88
71996;BME280;59862;47.732;7.346;2022-08-21T11:42:49;98008.03;;;33.88;28.35
71996;BME280;59862;47.732;7.346;2022-08-21T11:47:31;98012.91;;;32.81;29.81
71996;BME280;59862;47.732;7.346;2022-08-21T11:50:07;98005.28;;;34.15;27.44
71996;BME280;59862;47.732;7.346;2022-08-21T11:52:42;98008.52;;;35.03;26.28
71996;BME280;59862;47.732;7.346;2022-08-21T11:55:23;98009.92;;;36.00;25.87
71996;BME280;59862;47.732;7.346;2022-08-21T11:58:14;98007.16;;;36.85;24.35
71996;BME280;59862;47.732;7.346;2022-08-21T12:03:17;98002.38;;;37.97;21.38
71996;BME280;59862;47.732;7.346;2022-08-21T12:05:52;98000.41;;;37.98;20.71
71996;BME280;59862;47.732;7.346;2022-08-21T12:08:33;97993.53;;;37.71;21.00
71996;BME280;59862;47.732;7.346;2022-08-21T12:11:06;97996.81;;;37.63;21.26
71996;BME280;59862;47.732;7.346;2022-08-21T12:13:39;97990.68;;;37.02;20.74
71996;BME280;59862;47.732;7.346;2022-08-21T12:16:15;97990.55;;;38.42;19.42
71996;BME280;59862;47.732;7.346;2022-08-21T12:18:43;97985.42;;;38.95;19.74
71996;BME280;59862;47.732;7.346;2022-08-21T12:21:26;97987.39;;;40.06;18.34
71996;BME280;59862;47.732;7.346;2022-08-21T12:26:54;97990.52;;;41.25;16.88
71996;BME280;59862;47.732;7.346;2022-08-21T12:29:25;97982.19;;;42.36;16.58
71996;BME280;59862;47.732;7.346;2022-08-21T12:34:50;97982.22;;;43.14;14.07
71996;BME280;59862;47.732;7.346;2022-08-21T12:37:21;97978.19;;;42.89;14.42
71996;BME280;59862;47.732;7.346;2022-08-21T12:39:50;97977.98;;;42.03;14.82
71996;BME280;59862;47.732;7.346;2022-08-21T12:42:24;97971.45;;;42.80;13.84
71996;BME280;59862;47.732;7.346;2022-08-21T12:45:04;97971.19;;;42.84;14.54
71996;BME280;59862;47.732;7.346;2022-08-21T12:47:34;97965.24;;;43.76;13.04
71996;BME280;59862;47.732;7.346;2022-08-21T12:50:08;97967.78;;;42.79;13.71
71996;BME280;59862;47.732;7.346;2022-08-21T12:52:44;97961.29;;;43.80;12.91
71996;BME280;59862;47.732;7.346;2022-08-21T12:55:10;97966.82;;;44.52;12.12
71996;BME280;59862;47.732;7.346;2022-08-21T12:57:37;97964.70;;;45.23;11.22
71996;BME280;59862;47.732;7.346;2022-08-21T13:00:07;97971.94;;;45.62;11.90
71996;BME280;59862;47.732;7.346;2022-08-21T13:02:41;97959.37;;;43.90;12.53
71996;BME280;59862;47.732;7.346;2022-08-21T13:05:12;97958.78;;;42.97;12.36
71996;BME280;59862;47.732;7.346;2022-08-21T13:07:43;97958.75;;;44.06;11.51
71996;BME280;59862;47.732;7.346;2022-08-21T13:10:27;97959.23;;;45.66;10.21
71996;BME280;59862;47.732;7.346;2022-08-21T13:13:00;97959.72;;;47.04;10.41
71996;BME280;59862;47.732;7.346;2022-08-21T13:15:32;97952.44;;;48.10;8.61
71996;BME280;59862;47.732;7.346;2022-08-21T13:17:56;97947.70;;;46.40;9.47
71996;BME280;59862;47.732;7.346;2022-08-21T13:20:30;97939.00;;;43.97;11.81
71996;BME280;59862;47.732;7.346;2022-08-21T13:23:01;97933.28;;;42.53;12.85
71996;BME280;59862;47.732;7.346;2022-08-21T13:25:30;97931.53;;;42.50;12.90
71996;BME280;59862;47.732;7.346;2022-08-21T13:28:06;97929.49;;;44.34;11.36
71996;BME280;59862;47.732;7.346;2022-08-21T13:30:45;97935.41;;;45.36;10.47
71996;BME280;59862;47.732;7.346;2022-08-21T13:33:11;97933.53;;;44.92;11.25
71996;BME280;59862;47.732;7.346;2022-08-21T13:35:48;97926.92;;;44.99;11.93
71996;BME280;59862;47.732;7.346;2022-08-21T13:38:24;97930.66;;;44.53;12.69
71996;BME280;59862;47.732;7.346;2022-08-21T13:40:51;97933.13;;;45.27;11.75
71996;BME280;59862;47.732;7.346;2022-08-21T13:43:25;97930.15;;;46.82;11.06
71996;BME280;59862;47.732;7.346;2022-08-21T13:45:53;97923.46;;;45.24;11.44
71996;BME280;59862;47.732;7.346;2022-08-21T13:48:24;97911.70;;;43.40;12.38
71996;BME280;59862;47.732;7.346;2022-08-21T13:50:52;97917.38;;;44.90;11.85
71996;BME280;59862;47.732;7.346;2022-08-21T13:55:55;97913.40;;;47.16;10.88
71996;BME280;59862;47.732;7.346;2022-08-21T13:58:29;97920.48;;;48.57;9.23
71996;BME280;59862;47.732;7.346;2022-08-21T14:00:57;97916.14;;;48.12;8.75
71996;BME280;59862;47.732;7.346;2022-08-21T14:06:10;97902.01;;;48.08;8.07